sensor_id;sensor_type;location;lat;lon;timestamp;P1;durP1;ratioP1;P2;durP2;ratioP2
22131;SDS011;11232;51.748;19.390;2022-10-16T00:01:15;17.58;;;11.02;;
22131;SDS011;11232;51.748;19.390;2022-10-16T00:03:42;19.05;;;11.52;;
22131;SDS011;11232;51.748;19.390;2022-10-16T00:06:09;18.17;;;11.15;;
22131;SDS011;11232;51.748;19.390;2022-10-16T00:08:35;18.83;;;11.60;;
22131;SDS011;11232;51.748;19.390;2022-10-16T00:11:02;17.98;;;11.77;;
22131;SDS011;11232;51.748;19.390;2022-10-16T00:13:31;21.60;;;11.52;;
22131;SDS011;11232;51.748;19.390;2022-10-16T00:15:58;19.55;;;12.13;;
22131;SDS011;11232;51.748;19.390;2022-10-16T00:18:24;17.35;;;11.55;;
22131;SDS011;11232;51.748;19.390;2022-10-16T00:20:50;22.30;;;11.70;;
22131;SDS011;11232;51.748;19.390;2022-10-16T00:23:16;17.92;;;12.23;;
22131;SDS011;11232;51.748;19.390;2022-10-16T00:25:42;18.08;;;11.90;;
22131;SDS011;11232;51.748;19.390;2022-10-16T00:28:07;17.77;;;11.80;;
22131;SDS011;11232;51.748;19.390;2022-10-16T00:30:33;19.60;;;11.88;;
22131;SDS011;11232;51.748;19.390;2022-10-16T00:32:59;19.50;;;11.40;;
22131;SDS011;11232;51.748;19.390;2022-10-16T00:35:24;21.20;;;11.15;;
22131;SDS011;11232;51.748;19.390;2022-10-16T00:37:50;20.23;;;11.70;;
22131;SDS011;11232;51.748;19.390;2022-10-16T00:40:16;19.05;;;11.43;;
22131;SDS011;11232;51.748;19.390;2022-10-16T00:42:41;21.23;;;11.43;;
22131;SDS011;11232;51.748;19.390;2022-10-16T00:45:08;19.77;;;11.90;;
22131;SDS011;11232;51.748;19.390;2022-10-16T00:47:36;21.10;;;11.77;;
22131;SDS011;11232;51.748;19.390;2022-10-16T00:50:24;16.97;;;11.57;;
22131;SDS011;11232;51.748;19.390;2022-10-16T00:52:56;18.60;;;11.83;;
22131;SDS011;11232;51.748;19.390;2022-10-16T00:55:23;16.37;;;11.63;;
22131;SDS011;11232;51.748;19.390;2022-10-16T00:57:50;20.77;;;12.27;;
22131;SDS011;11232;51.748;19.390;2022-10-16T01:00:20;20.07;;;12.37;;
22131;SDS011;11232;51.748;19.390;2022-10-16T01:02:54;19.97;;;11.73;;
22131;SDS011;11232;51.748;19.390;2022-10-16T01:05:26;17.53;;;11.70;;
22131;SDS011;11232;51.748;19.390;2022-10-16T01:13:42;18.92;;;11.25;;
22131;SDS011;11232;51.748;19.390;2022-10-16T01:16:15;17.77;;;10.80;;
22131;SDS011;11232;51.748;19.390;2022-10-16T01:19:04;17.40;;;12.27;;
22131;SDS011;11232;51.748;19.390;2022-10-16T01:21:36;18.10;;;11.20;;
22131;SDS011;11232;51.748;19.390;2022-10-16T01:24:11;18.47;;;11.83;;
22131;SDS011;11232;51.748;19.390;2022-10-16T01:35:30;15.97;;;11.10;;
22131;SDS011;11232;51.748;19.390;2022-10-16T01:38:05;19.87;;;10.73;;
22131;SDS011;11232;51.748;19.390;2022-10-16T01:40:41;16.67;;;10.80;;
22131;SDS011;11232;51.748;19.390;2022-10-16T01:43:14;18.63;;;10.57;;
22131;SDS011;11232;51.748;19.390;2022-10-16T01:45:44;20.53;;;10.73;;
22131;SDS011;11232;51.748;19.390;2022-10-16T01:48:12;17.33;;;10.73;;
22131;SDS011;11232;51.748;19.390;2022-10-16T01:50:41;17.03;;;11.73;;
22131;SDS011;11232;51.748;19.390;2022-10-16T01:53:09;22.40;;;11.90;;
22131;SDS011;11232;51.748;19.390;2022-10-16T01:55:38;18.17;;;12.03;;
22131;SDS011;11232;51.748;19.390;2022-10-16T01:58:09;17.90;;;11.40;;
22131;SDS011;11232;51.748;19.390;2022-10-16T02:00:37;18.60;;;11.83;;
22131;SDS011;11232;51.748;19.390;2022-10-16T02:03:04;18.57;;;12.20;;
22131;SDS011;11232;51.748;19.390;2022-10-16T02:05:33;16.40;;;11.07;;
22131;SDS011;11232;51.748;19.390;2022-10-16T02:08:04;20.23;;;11.30;;
22131;SDS011;11232;51.748;19.390;2022-10-16T02:10:30;16.43;;;11.13;;
22131;SDS011;11232;51.748;19.390;2022-10-16T02:13:10;19.73;;;12.47;;
22131;SDS011;11232;51.748;19.390;2022-10-16T02:15:45;18.70;;;10.83;;
22131;SDS011;11232;51.748;19.390;2022-10-16T02:18:10;18.33;;;11.63;;
22131;SDS011;11232;51.748;19.390;2022-10-16T02:20:39;17.37;;;11.63;;
22131;SDS011;11232;51.748;19.390;2022-10-16T02:26:29;22.00;;;12.13;;
22131;SDS011;11232;51.748;19.390;2022-10-16T02:29:01;16.90;;;11.47;;
22131;SDS011;11232;51.748;19.390;2022-10-16T02:31:31;19.10;;;12.10;;
22131;SDS011;11232;51.748;19.390;2022-10-16T02:34:00;19.30;;;12.50;;
22131;SDS011;11232;51.748;19.390;2022-10-16T02:36:30;18.17;;;11.03;;
22131;SDS011;11232;51.748;19.390;2022-10-16T02:38:57;21.90;;;12.13;;
22131;SDS011;11232;51.748;19.390;2022-10-16T02:41:25;19.27;;;11.80;;
22131;SDS011;11232;51.748;19.390;2022-10-16T02:43:50;18.47;;;11.77;;
22131;SDS011;11232;51.748;19.390;2022-10-16T02:46:16;22.20;;;13.17;;
22131;SDS011;11232;51.748;19.390;2022-10-16T02:48:43;22.30;;;12.60;;
22131;SDS011;11232;51.748;19.390;2022-10-16T02:51:09;18.90;;;12.73;;
22131;SDS011;11232;51.748;19.390;2022-10-16T02:53:34;21.33;;;12.77;;
22131;SDS011;11232;51.748;19.390;2022-10-16T02:56:00;19.07;;;12.47;;
22131;SDS011;11232;51.748;19.390;2022-10-16T02:58:26;20.00;;;12.37;;
22131;SDS011;11232;51.748;19.390;2022-10-16T03:00:52;19.73;;;13.00;;
22131;SDS011;11232;51.748;19.390;2022-10-16T03:03:17;17.80;;;12.63;;
22131;SDS011;11232;51.748;19.390;2022-10-16T03:05:43;23.13;;;14.17;;
22131;SDS011;11232;51.748;19.390;2022-10-16T03:08:11;28.53;;;13.93;;
22131;SDS011;11232;51.748;19.390;2022-10-16T03:10:37;21.90;;;14.13;;
22131;SDS011;11232;51.748;19.390;2022-10-16T03:13:02;23.20;;;14.40;;
22131;SDS011;11232;51.748;19.390;2022-10-16T03:15:28;26.53;;;13.97;;
22131;SDS011;11232;51.748;19.390;2022-10-16T03:17:54;24.37;;;14.60;;
22131;SDS011;11232;51.748;19.390;2022-10-16T03:20:20;21.67;;;14.33;;
22131;SDS011;11232;51.748;19.390;2022-10-16T03:22:45;24.70;;;14.27;;
22131;SDS011;11232;51.748;19.390;2022-10-16T03:25:11;23.77;;;14.60;;
22131;SDS011;11232;51.748;19.390;2022-10-16T03:27:36;24.03;;;14.90;;
22131;SDS011;11232;51.748;19.390;2022-10-16T03:30:02;23.07;;;14.43;;
22131;SDS011;11232;51.748;19.390;2022-10-16T03:32:28;23.50;;;14.83;;
22131;SDS011;11232;51.748;19.390;2022-10-16T03:34:54;30.30;;;15.00;;
22131;SDS011;11232;51.748;19.390;2022-10-16T03:37:21;24.30;;;15.23;;
22131;SDS011;11232;51.748;19.390;2022-10-16T03:39:46;28.83;;;14.90;;
22131;SDS011;11232;51.748;19.390;2022-10-16T03:42:12;23.70;;;14.07;;
22131;SDS011;11232;51.748;19.390;2022-10-16T03:44:38;28.73;;;16.20;;
22131;SDS011;11232;51.748;19.390;2022-10-16T03:47:03;26.00;;;14.77;;
22131;SDS011;11232;51.748;19.390;2022-10-16T03:49:29;24.30;;;14.90;;
22131;SDS011;11232;51.748;19.390;2022-10-16T03:51:54;24.43;;;15.03;;
22131;SDS011;11232;51.748;19.390;2022-10-16T03:54:20;24.83;;;15.93;;
22131;SDS011;11232;51.748;19.390;2022-10-16T03:56:47;24.10;;;14.53;;
22131;SDS011;11232;51.748;19.390;2022-10-16T03:59:12;24.63;;;15.03;;
22131;SDS011;11232;51.748;19.390;2022-10-16T04:01:38;27.07;;;15.13;;
22131;SDS011;11232;51.748;19.390;2022-10-16T04:04:04;27.00;;;15.27;;
22131;SDS011;11232;51.748;19.390;2022-10-16T04:06:29;26.97;;;15.40;;
22131;SDS011;11232;51.748;19.390;2022-10-16T04:08:55;27.47;;;15.87;;
22131;SDS011;11232;51.748;19.390;2022-10-16T04:11:21;23.70;;;14.93;;
22131;SDS011;11232;51.748;19.390;2022-10-16T04:13:46;23.00;;;15.03;;
22131;SDS011;11232;51.748;19.390;2022-10-16T04:16:12;26.70;;;15.33;;
22131;SDS011;11232;51.748;19.390;2022-10-16T04:18:38;27.73;;;16.20;;
22131;SDS011;11232;51.748;19.390;2022-10-16T04:21:04;26.77;;;16.63;;
22131;SDS011;11232;51.748;19.390;2022-10-16T04:23:30;30.30;;;19.23;;
22131;SDS011;11232;51.748;19.390;2022-10-16T04:25:56;25.10;;;15.93;;
22131;SDS011;11232;51.748;19.390;2022-10-16T04:28:22;27.97;;;15.67;;
22131;SDS011;11232;51.748;19.390;2022-10-16T04:30:48;29.13;;;15.60;;
22131;SDS011;11232;51.748;19.390;2022-10-16T04:33:13;26.80;;;15.67;;
22131;SDS011;11232;51.748;19.390;2022-10-16T04:35:39;28.38;;;16.23;;
22131;SDS011;11232;51.748;19.390;2022-10-16T04:38:04;27.27;;;15.60;;
22131;SDS011;11232;51.748;19.390;2022-10-16T04:40:30;24.47;;;15.40;;
22131;SDS011;11232;51.748;19.390;2022-10-16T04:43:01;25.60;;;15.63;;
22131;SDS011;11232;51.748;19.390;2022-10-16T04:45:27;29.60;;;16.00;;
22131;SDS011;11232;51.748;19.390;2022-10-16T04:47:53;29.03;;;16.20;;
22131;SDS011;11232;51.748;19.390;2022-10-16T04:50:22;26.98;;;16.15;;
22131;SDS011;11232;51.748;19.390;2022-10-16T04:52:48;26.37;;;15.23;;
22131;SDS011;11232;51.748;19.390;2022-10-16T04:55:13;26.47;;;15.57;;
22131;SDS011;11232;51.748;19.390;2022-10-16T04:57:39;24.20;;;13.47;;
22131;SDS011;11232;51.748;19.390;2022-10-16T05:00:05;25.73;;;15.50;;
22131;SDS011;11232;51.748;19.390;2022-10-16T05:02:32;28.83;;;15.00;;
22131;SDS011;11232;51.748;19.390;2022-10-16T05:04:58;27.73;;;15.93;;
22131;SDS011;11232;51.748;19.390;2022-10-16T05:07:24;24.67;;;16.17;;
22131;SDS011;11232;51.748;19.390;2022-10-16T05:09:49;26.67;;;14.87;;
22131;SDS011;11232;51.748;19.390;2022-10-16T05:12:15;26.90;;;15.48;;
22131;SDS011;11232;51.748;19.390;2022-10-16T05:14:40;28.35;;;15.57;;
22131;SDS011;11232;51.748;19.390;2022-10-16T05:17:06;25.52;;;16.13;;
22131;SDS011;11232;51.748;19.390;2022-10-16T05:19:32;25.50;;;15.98;;
22131;SDS011;11232;51.748;19.390;2022-10-16T05:21:57;25.50;;;15.18;;
22131;SDS011;11232;51.748;19.390;2022-10-16T05:24:23;31.13;;;15.38;;
22131;SDS011;11232;51.748;19.390;2022-10-16T05:26:49;22.75;;;15.15;;
22131;SDS011;11232;51.748;19.390;2022-10-16T05:29:15;23.73;;;15.20;;
22131;SDS011;11232;51.748;19.390;2022-10-16T05:31:40;24.80;;;14.87;;
22131;SDS011;11232;51.748;19.390;2022-10-16T05:34:06;22.23;;;14.33;;
22131;SDS011;11232;51.748;19.390;2022-10-16T05:36:31;25.57;;;15.17;;
22131;SDS011;11232;51.748;19.390;2022-10-16T05:38:57;23.83;;;14.88;;
22131;SDS011;11232;51.748;19.390;2022-10-16T05:41:23;23.97;;;14.70;;
22131;SDS011;11232;51.748;19.390;2022-10-16T05:43:50;23.85;;;14.52;;
22131;SDS011;11232;51.748;19.390;2022-10-16T05:46:16;22.47;;;14.43;;
22131;SDS011;11232;51.748;19.390;2022-10-16T05:48:42;23.13;;;14.30;;
22131;SDS011;11232;51.748;19.390;2022-10-16T05:51:12;22.13;;;14.07;;
22131;SDS011;11232;51.748;19.390;2022-10-16T05:53:39;24.33;;;15.13;;
22131;SDS011;11232;51.748;19.390;2022-10-16T05:56:06;22.10;;;14.33;;
22131;SDS011;11232;51.748;19.390;2022-10-16T05:58:34;26.13;;;14.25;;
22131;SDS011;11232;51.748;19.390;2022-10-16T06:01:02;22.10;;;13.48;;
22131;SDS011;11232;51.748;19.390;2022-10-16T06:03:29;26.50;;;14.18;;
22131;SDS011;11232;51.748;19.390;2022-10-16T06:05:55;23.77;;;14.82;;
22131;SDS011;11232;51.748;19.390;2022-10-16T06:08:21;22.40;;;13.73;;
22131;SDS011;11232;51.748;19.390;2022-10-16T06:10:47;21.38;;;12.98;;
22131;SDS011;11232;51.748;19.390;2022-10-16T06:13:14;21.77;;;12.65;;
22131;SDS011;11232;51.748;19.390;2022-10-16T06:15:40;26.60;;;13.75;;
22131;SDS011;11232;51.748;19.390;2022-10-16T06:18:08;23.77;;;14.60;;
22131;SDS011;11232;51.748;19.390;2022-10-16T06:20:34;24.58;;;14.55;;
22131;SDS011;11232;51.748;19.390;2022-10-16T06:23:00;20.60;;;13.45;;
22131;SDS011;11232;51.748;19.390;2022-10-16T06:25:25;23.48;;;14.10;;
22131;SDS011;11232;51.748;19.390;2022-10-16T06:27:51;23.73;;;13.38;;
22131;SDS011;11232;51.748;19.390;2022-10-16T06:30:16;21.90;;;14.38;;
22131;SDS011;11232;51.748;19.390;2022-10-16T06:32:42;23.98;;;12.60;;
22131;SDS011;11232;51.748;19.390;2022-10-16T06:35:08;17.58;;;11.95;;
22131;SDS011;11232;51.748;19.390;2022-10-16T06:37:33;17.25;;;12.07;;
22131;SDS011;11232;51.748;19.390;2022-10-16T06:39:59;21.58;;;12.07;;
22131;SDS011;11232;51.748;19.390;2022-10-16T06:42:25;20.95;;;11.95;;
22131;SDS011;11232;51.748;19.390;2022-10-16T06:44:50;18.27;;;12.20;;
22131;SDS011;11232;51.748;19.390;2022-10-16T06:47:16;18.65;;;12.10;;
22131;SDS011;11232;51.748;19.390;2022-10-16T06:49:42;16.95;;;12.07;;
22131;SDS011;11232;51.748;19.390;2022-10-16T06:52:08;16.73;;;11.27;;
22131;SDS011;11232;51.748;19.390;2022-10-16T06:54:33;16.73;;;10.95;;
22131;SDS011;11232;51.748;19.390;2022-10-16T06:56:59;20.45;;;12.40;;
22131;SDS011;11232;51.748;19.390;2022-10-16T06:59:26;19.95;;;12.15;;
22131;SDS011;11232;51.748;19.390;2022-10-16T07:01:51;19.80;;;11.65;;
22131;SDS011;11232;51.748;19.390;2022-10-16T07:04:17;17.25;;;11.60;;
22131;SDS011;11232;51.748;19.390;2022-10-16T07:06:42;20.25;;;12.40;;
22131;SDS011;11232;51.748;19.390;2022-10-16T07:09:09;22.50;;;12.05;;
22131;SDS011;11232;51.748;19.390;2022-10-16T07:11:36;20.15;;;12.82;;
22131;SDS011;11232;51.748;19.390;2022-10-16T07:14:03;20.48;;;13.55;;
22131;SDS011;11232;51.748;19.390;2022-10-16T07:16:30;21.67;;;13.10;;
22131;SDS011;11232;51.748;19.390;2022-10-16T07:18:58;20.35;;;13.43;;
22131;SDS011;11232;51.748;19.390;2022-10-16T07:21:26;20.58;;;12.82;;
22131;SDS011;11232;51.748;19.390;2022-10-16T07:24:00;17.45;;;11.90;;
22131;SDS011;11232;51.748;19.390;2022-10-16T07:26:32;18.92;;;11.73;;
22131;SDS011;11232;51.748;19.390;2022-10-16T07:28:59;20.75;;;11.45;;
22131;SDS011;11232;51.748;19.390;2022-10-16T07:31:25;20.17;;;12.10;;
22131;SDS011;11232;51.748;19.390;2022-10-16T07:33:51;17.23;;;11.50;;
22131;SDS011;11232;51.748;19.390;2022-10-16T07:36:18;16.55;;;10.98;;
22131;SDS011;11232;51.748;19.390;2022-10-16T07:38:45;15.70;;;10.65;;
22131;SDS011;11232;51.748;19.390;2022-10-16T07:41:15;14.73;;;11.40;;
22131;SDS011;11232;51.748;19.390;2022-10-16T07:43:49;17.95;;;11.38;;
22131;SDS011;11232;51.748;19.390;2022-10-16T07:46:17;16.88;;;11.70;;
22131;SDS011;11232;51.748;19.390;2022-10-16T07:48:43;12.43;;;10.35;;
22131;SDS011;11232;51.748;19.390;2022-10-16T07:51:12;15.40;;;11.60;;
22131;SDS011;11232;51.748;19.390;2022-10-16T07:53:39;18.92;;;12.18;;
22131;SDS011;11232;51.748;19.390;2022-10-16T07:56:05;17.13;;;11.75;;
22131;SDS011;11232;51.748;19.390;2022-10-16T07:58:32;15.27;;;11.63;;
22131;SDS011;11232;51.748;19.390;2022-10-16T08:00:58;17.95;;;12.20;;
22131;SDS011;11232;51.748;19.390;2022-10-16T08:03:28;18.92;;;12.50;;
22131;SDS011;11232;51.748;19.390;2022-10-16T08:05:54;18.90;;;13.00;;
22131;SDS011;11232;51.748;19.390;2022-10-16T08:08:22;18.27;;;12.88;;
22131;SDS011;11232;51.748;19.390;2022-10-16T08:10:48;19.60;;;13.40;;
22131;SDS011;11232;51.748;19.390;2022-10-16T08:13:13;20.40;;;13.27;;
22131;SDS011;11232;51.748;19.390;2022-10-16T08:15:40;24.25;;;13.63;;
22131;SDS011;11232;51.748;19.390;2022-10-16T08:18:10;24.35;;;13.77;;
22131;SDS011;11232;51.748;19.390;2022-10-16T08:20:36;20.02;;;14.20;;
22131;SDS011;11232;51.748;19.390;2022-10-16T08:23:02;19.48;;;13.40;;
22131;SDS011;11232;51.748;19.390;2022-10-16T08:25:28;23.33;;;14.07;;
22131;SDS011;11232;51.748;19.390;2022-10-16T08:27:54;24.20;;;14.50;;
22131;SDS011;11232;51.748;19.390;2022-10-16T08:30:20;21.85;;;13.77;;
22131;SDS011;11232;51.748;19.390;2022-10-16T08:32:46;21.50;;;13.45;;
22131;SDS011;11232;51.748;19.390;2022-10-16T08:35:12;20.00;;;13.63;;
22131;SDS011;11232;51.748;19.390;2022-10-16T08:37:39;19.85;;;13.32;;
22131;SDS011;11232;51.748;19.390;2022-10-16T08:40:06;22.75;;;14.23;;
22131;SDS011;11232;51.748;19.390;2022-10-16T08:42:44;21.23;;;14.25;;
22131;SDS011;11232;51.748;19.390;2022-10-16T08:47:46;21.33;;;14.13;;
22131;SDS011;11232;51.748;19.390;2022-10-16T08:50:35;22.17;;;14.35;;
22131;SDS011;11232;51.748;19.390;2022-10-16T08:53:03;22.00;;;13.90;;
22131;SDS011;11232;51.748;19.390;2022-10-16T08:58:01;22.08;;;13.85;;
22131;SDS011;11232;51.748;19.390;2022-10-16T09:00:33;19.50;;;13.48;;
22131;SDS011;11232;51.748;19.390;2022-10-16T09:05:52;24.50;;;13.70;;
22131;SDS011;11232;51.748;19.390;2022-10-16T09:08:31;24.48;;;13.70;;
22131;SDS011;11232;51.748;19.390;2022-10-16T09:16:44;19.83;;;12.30;;
22131;SDS011;11232;51.748;19.390;2022-10-16T09:19:24;24.02;;;12.95;;
22131;SDS011;11232;51.748;19.390;2022-10-16T09:22:10;21.20;;;12.40;;
22131;SDS011;11232;51.748;19.390;2022-10-16T09:24:39;17.92;;;12.20;;
22131;SDS011;11232;51.748;19.390;2022-10-16T09:27:08;19.05;;;12.65;;
22131;SDS011;11232;51.748;19.390;2022-10-16T09:29:36;19.88;;;12.55;;
22131;SDS011;11232;51.748;19.390;2022-10-16T09:32:20;24.27;;;13.15;;
22131;SDS011;11232;51.748;19.390;2022-10-16T09:34:48;22.55;;;12.82;;
22131;SDS011;11232;51.748;19.390;2022-10-16T09:37:17;20.73;;;12.40;;
22131;SDS011;11232;51.748;19.390;2022-10-16T09:39:54;17.23;;;12.48;;
22131;SDS011;11232;51.748;19.390;2022-10-16T09:42:21;17.88;;;12.23;;
22131;SDS011;11232;51.748;19.390;2022-10-16T09:44:51;14.73;;;11.25;;
22131;SDS011;11232;51.748;19.390;2022-10-16T09:47:19;18.58;;;12.27;;
22131;SDS011;11232;51.748;19.390;2022-10-16T09:49:51;22.90;;;12.82;;
22131;SDS011;11232;51.748;19.390;2022-10-16T09:52:29;16.02;;;11.27;;
22131;SDS011;11232;51.748;19.390;2022-10-16T09:54:56;21.23;;;11.25;;
22131;SDS011;11232;51.748;19.390;2022-10-16T09:57:23;16.27;;;11.82;;
22131;SDS011;11232;51.748;19.390;2022-10-16T09:59:50;15.23;;;10.80;;
22131;SDS011;11232;51.748;19.390;2022-10-16T10:02:38;15.02;;;11.18;;
22131;SDS011;11232;51.748;19.390;2022-10-16T10:05:06;13.10;;;11.20;;
22131;SDS011;11232;51.748;19.390;2022-10-16T10:07:57;17.02;;;12.02;;
22131;SDS011;11232;51.748;19.390;2022-10-16T10:10:28;16.27;;;11.25;;
22131;SDS011;11232;51.748;19.390;2022-10-16T10:12:55;15.52;;;11.40;;
22131;SDS011;11232;51.748;19.390;2022-10-16T10:15:22;16.02;;;11.30;;
22131;SDS011;11232;51.748;19.390;2022-10-16T10:17:50;15.95;;;10.35;;
22131;SDS011;11232;51.748;19.390;2022-10-16T10:20:26;18.45;;;11.43;;
22131;SDS011;11232;51.748;19.390;2022-10-16T10:22:57;12.32;;;9.80;;
22131;SDS011;11232;51.748;19.390;2022-10-16T10:25:31;13.82;;;9.57;;
22131;SDS011;11232;51.748;19.390;2022-10-16T10:28:19;14.93;;;9.63;;
22131;SDS011;11232;51.748;19.390;2022-10-16T10:30:56;11.77;;;9.45;;
22131;SDS011;11232;51.748;19.390;2022-10-16T10:33:54;15.40;;;10.20;;
22131;SDS011;11232;51.748;19.390;2022-10-16T10:39:09;14.65;;;10.30;;
22131;SDS011;11232;51.748;19.390;2022-10-16T10:42:01;12.18;;;9.75;;
22131;SDS011;11232;51.748;19.390;2022-10-16T10:50:22;14.73;;;9.55;;
22131;SDS011;11232;51.748;19.390;2022-10-16T10:53:09;10.82;;;8.10;;
22131;SDS011;11232;51.748;19.390;2022-10-16T10:55:52;11.85;;;8.32;;
22131;SDS011;11232;51.748;19.390;2022-10-16T11:06:27;11.65;;;8.45;;
22131;SDS011;11232;51.748;19.390;2022-10-16T11:14:16;9.32;;;7.95;;
22131;SDS011;11232;51.748;19.390;2022-10-16T11:16:48;11.27;;;7.43;;
22131;SDS011;11232;51.748;19.390;2022-10-16T11:19:39;13.27;;;7.32;;
22131;SDS011;11232;51.748;19.390;2022-10-16T11:22:37;11.95;;;7.68;;
22131;SDS011;11232;51.748;19.390;2022-10-16T11:27:47;8.70;;;6.70;;
22131;SDS011;11232;51.748;19.390;2022-10-16T11:30:24;9.23;;;6.88;;
22131;SDS011;11232;51.748;19.390;2022-10-16T11:41:50;10.05;;;6.40;;
22131;SDS011;11232;51.748;19.390;2022-10-16T11:44:34;8.80;;;6.93;;
22131;SDS011;11232;51.748;19.390;2022-10-16T11:53:04;10.02;;;6.40;;
22131;SDS011;11232;51.748;19.390;2022-10-16T11:55:51;8.00;;;6.30;;
22131;SDS011;11232;51.748;19.390;2022-10-16T12:09:00;8.98;;;6.93;;
22131;SDS011;11232;51.748;19.390;2022-10-16T12:14:59;8.48;;;6.35;;
22131;SDS011;11232;51.748;19.390;2022-10-16T12:17:23;9.00;;;6.47;;
22131;SDS011;11232;51.748;19.390;2022-10-16T12:22:41;8.18;;;6.40;;
22131;SDS011;11232;51.748;19.390;2022-10-16T12:25:21;9.13;;;6.40;;
22131;SDS011;11232;51.748;19.390;2022-10-16T12:30:26;10.15;;;6.30;;
22131;SDS011;11232;51.748;19.390;2022-10-16T12:32:54;9.82;;;6.68;;
22131;SDS011;11232;51.748;19.390;2022-10-16T12:35:26;8.65;;;6.25;;
22131;SDS011;11232;51.748;19.390;2022-10-16T12:38:04;11.60;;;6.43;;
22131;SDS011;11232;51.748;19.390;2022-10-16T12:40:33;23.25;;;7.63;;
22131;SDS011;11232;51.748;19.390;2022-10-16T12:43:10;13.63;;;7.47;;
22131;SDS011;11232;51.748;19.390;2022-10-16T12:45:46;11.23;;;7.72;;
22131;SDS011;11232;51.748;19.390;2022-10-16T12:48:18;11.77;;;7.50;;
22131;SDS011;11232;51.748;19.390;2022-10-16T12:50:46;11.93;;;7.95;;
22131;SDS011;11232;51.748;19.390;2022-10-16T12:53:22;11.48;;;7.75;;
22131;SDS011;11232;51.748;19.390;2022-10-16T12:56:04;10.95;;;7.35;;
22131;SDS011;11232;51.748;19.390;2022-10-16T12:58:51;14.95;;;7.95;;
22131;SDS011;11232;51.748;19.390;2022-10-16T13:06:33;14.45;;;7.90;;
22131;SDS011;11232;51.748;19.390;2022-10-16T13:12:59;12.95;;;7.35;;
22131;SDS011;11232;51.748;19.390;2022-10-16T13:17:47;9.68;;;6.65;;
22131;SDS011;11232;51.748;19.390;2022-10-16T13:20:22;10.45;;;7.10;;
22131;SDS011;11232;51.748;19.390;2022-10-16T13:28:37;11.45;;;7.30;;
22131;SDS011;11232;51.748;19.390;2022-10-16T13:31:04;12.70;;;7.30;;
22131;SDS011;11232;51.748;19.390;2022-10-16T13:33:39;9.32;;;6.82;;
22131;SDS011;11232;51.748;19.390;2022-10-16T13:36:17;9.75;;;6.60;;
22131;SDS011;11232;51.748;19.390;2022-10-16T13:41:35;8.80;;;6.38;;
22131;SDS011;11232;51.748;19.390;2022-10-16T13:44:01;10.98;;;6.78;;
22131;SDS011;11232;51.748;19.390;2022-10-16T13:46:27;10.70;;;6.60;;
22131;SDS011;11232;51.748;19.390;2022-10-16T13:48:58;9.50;;;6.20;;
22131;SDS011;11232;51.748;19.390;2022-10-16T13:51:25;10.75;;;7.18;;
22131;SDS011;11232;51.748;19.390;2022-10-16T13:53:52;12.13;;;7.28;;
22131;SDS011;11232;51.748;19.390;2022-10-16T13:56:20;13.00;;;7.15;;
22131;SDS011;11232;51.748;19.390;2022-10-16T13:58:57;10.77;;;6.93;;
22131;SDS011;11232;51.748;19.390;2022-10-16T14:04:10;10.52;;;7.05;;
22131;SDS011;11232;51.748;19.390;2022-10-16T14:06:40;9.85;;;7.35;;
22131;SDS011;11232;51.748;19.390;2022-10-16T14:12:11;12.07;;;7.03;;
22131;SDS011;11232;51.748;19.390;2022-10-16T14:14:34;12.63;;;7.55;;
22131;SDS011;11232;51.748;19.390;2022-10-16T14:17:05;10.85;;;7.30;;
22131;SDS011;11232;51.748;19.390;2022-10-16T14:19:38;10.60;;;7.38;;
22131;SDS011;11232;51.748;19.390;2022-10-16T14:22:20;11.38;;;7.85;;
22131;SDS011;11232;51.748;19.390;2022-10-16T14:30:52;11.63;;;8.32;;
22131;SDS011;11232;51.748;19.390;2022-10-16T14:35:59;15.48;;;9.38;;
22131;SDS011;11232;51.748;19.390;2022-10-16T14:38:48;13.63;;;8.65;;
22131;SDS011;11232;51.748;19.390;2022-10-16T14:41:20;13.48;;;8.38;;
22131;SDS011;11232;51.748;19.390;2022-10-16T14:43:50;13.52;;;8.98;;
22131;SDS011;11232;51.748;19.390;2022-10-16T14:46:19;13.27;;;8.98;;
22131;SDS011;11232;51.748;19.390;2022-10-16T14:48:51;11.73;;;8.40;;
22131;SDS011;11232;51.748;19.390;2022-10-16T14:51:30;14.18;;;9.05;;
22131;SDS011;11232;51.748;19.390;2022-10-16T14:53:55;12.85;;;9.40;;
22131;SDS011;11232;51.748;19.390;2022-10-16T14:56:22;12.07;;;9.32;;
22131;SDS011;11232;51.748;19.390;2022-10-16T14:58:50;13.15;;;8.27;;
22131;SDS011;11232;51.748;19.390;2022-10-16T15:01:17;14.30;;;8.05;;
22131;SDS011;11232;51.748;19.390;2022-10-16T15:03:43;10.77;;;8.27;;
22131;SDS011;11232;51.748;19.390;2022-10-16T15:06:12;13.75;;;9.00;;
22131;SDS011;11232;51.748;19.390;2022-10-16T15:08:39;13.65;;;9.10;;
22131;SDS011;11232;51.748;19.390;2022-10-16T15:11:05;14.20;;;9.00;;
22131;SDS011;11232;51.748;19.390;2022-10-16T15:13:37;12.25;;;9.52;;
22131;SDS011;11232;51.748;19.390;2022-10-16T15:16:03;15.18;;;8.88;;
22131;SDS011;11232;51.748;19.390;2022-10-16T15:18:28;13.07;;;9.35;;
22131;SDS011;11232;51.748;19.390;2022-10-16T15:20:54;14.43;;;9.15;;
22131;SDS011;11232;51.748;19.390;2022-10-16T15:23:20;14.00;;;8.85;;
22131;SDS011;11232;51.748;19.390;2022-10-16T15:25:47;13.40;;;9.55;;
22131;SDS011;11232;51.748;19.390;2022-10-16T15:28:18;14.90;;;9.90;;
22131;SDS011;11232;51.748;19.390;2022-10-16T15:30:45;14.70;;;10.05;;
22131;SDS011;11232;51.748;19.390;2022-10-16T15:33:12;15.70;;;9.73;;
22131;SDS011;11232;51.748;19.390;2022-10-16T15:35:46;13.82;;;9.65;;
22131;SDS011;11232;51.748;19.390;2022-10-16T15:38:13;13.18;;;9.32;;
22131;SDS011;11232;51.748;19.390;2022-10-16T15:40:39;16.33;;;9.90;;
22131;SDS011;11232;51.748;19.390;2022-10-16T15:43:06;14.30;;;10.43;;
22131;SDS011;11232;51.748;19.390;2022-10-16T15:45:31;18.40;;;10.60;;
22131;SDS011;11232;51.748;19.390;2022-10-16T15:47:57;17.33;;;9.88;;
22131;SDS011;11232;51.748;19.390;2022-10-16T15:50:22;14.52;;;10.07;;
22131;SDS011;11232;51.748;19.390;2022-10-16T15:52:48;15.50;;;10.63;;
22131;SDS011;11232;51.748;19.390;2022-10-16T15:55:15;17.63;;;10.70;;
22131;SDS011;11232;51.748;19.390;2022-10-16T15:57:42;18.08;;;10.48;;
22131;SDS011;11232;51.748;19.390;2022-10-16T16:00:12;17.05;;;9.98;;
22131;SDS011;11232;51.748;19.390;2022-10-16T16:02:42;14.07;;;10.50;;
22131;SDS011;11232;51.748;19.390;2022-10-16T16:05:09;15.02;;;9.93;;
22131;SDS011;11232;51.748;19.390;2022-10-16T16:07:36;14.88;;;10.35;;
22131;SDS011;11232;51.748;19.390;2022-10-16T16:10:03;17.98;;;10.80;;
22131;SDS011;11232;51.748;19.390;2022-10-16T16:12:30;17.27;;;11.00;;
22131;SDS011;11232;51.748;19.390;2022-10-16T16:14:56;15.70;;;10.45;;
22131;SDS011;11232;51.748;19.390;2022-10-16T16:17:21;17.70;;;11.10;;
22131;SDS011;11232;51.748;19.390;2022-10-16T16:19:48;21.30;;;12.75;;
22131;SDS011;11232;51.748;19.390;2022-10-16T16:22:14;18.60;;;11.80;;
22131;SDS011;11232;51.748;19.390;2022-10-16T16:24:39;17.15;;;12.02;;
22131;SDS011;11232;51.748;19.390;2022-10-16T16:27:05;23.77;;;12.35;;
22131;SDS011;11232;51.748;19.390;2022-10-16T16:29:30;18.08;;;12.63;;